createdAt,value
2018-09-19T00:01:57.563Z,3.85
2018-09-19T00:04:25.757Z,4.12
2018-09-19T00:06:53.971Z,3.80
2018-09-19T00:09:22.255Z,3.52
2018-09-19T00:11:50.534Z,3.60
2018-09-19T00:14:18.742Z,3.47
2018-09-19T00:16:46.936Z,3.95
2018-09-19T00:19:15.130Z,3.65
2018-09-19T00:21:43.330Z,4.00
2018-09-19T00:24:11.538Z,4.20
2018-09-19T00:26:39.734Z,3.55
2018-09-19T00:29:08.171Z,4.20
2018-09-19T00:31:36.369Z,3.45
2018-09-19T00:34:04.567Z,3.17
2018-09-19T00:36:32.762Z,4.33
2018-09-19T00:39:00.953Z,4.33
2018-09-19T00:41:29.185Z,4.20
2018-09-19T00:43:57.382Z,4.00
2018-09-19T00:46:25.803Z,4.33
2018-09-19T00:48:53.991Z,4.03
2018-09-19T00:51:22.190Z,3.98
2018-09-19T00:53:50.394Z,4.30
2018-09-19T00:56:18.587Z,3.70
2018-09-19T00:58:46.775Z,4.28
2018-09-19T01:01:15.116Z,3.52
2018-09-19T01:03:43.643Z,3.92
2018-09-19T01:06:11.841Z,4.60
2018-09-19T01:08:40.042Z,4.00
2018-09-19T01:11:08.260Z,4.03
2018-09-19T01:13:36.470Z,5.15
2018-09-19T01:16:04.694Z,4.70
2018-09-19T01:18:33.014Z,4.62
2018-09-19T01:21:01.231Z,4.40
2018-09-19T01:23:29.434Z,3.95
2018-09-19T01:25:57.642Z,4.83
2018-09-19T01:28:25.839Z,3.72
2018-09-19T01:30:54.038Z,4.60
2018-09-19T01:33:22.234Z,3.90
2018-09-19T01:35:50.427Z,4.60
2018-09-19T01:38:18.620Z,4.08
2018-09-19T01:40:46.814Z,4.35
2018-09-19T01:43:15.198Z,5.22
2018-09-19T01:45:43.707Z,4.20
2018-09-19T01:48:11.924Z,4.58
2018-09-19T01:50:40.182Z,3.80
2018-09-19T01:53:08.368Z,4.60
2018-09-19T01:55:36.565Z,4.40
2018-09-19T01:58:04.926Z,4.47
2018-09-19T02:00:33.150Z,4.62
2018-09-19T02:03:01.343Z,5.35
2018-09-19T02:05:29.557Z,4.25
2018-09-19T02:07:57.765Z,4.45
2018-09-19T02:10:25.968Z,5.00
2018-09-19T02:12:54.177Z,4.83
2018-09-19T02:15:22.401Z,3.60
2018-09-19T02:17:50.609Z,4.40
2018-09-19T02:20:18.850Z,4.35
2018-09-19T02:22:47.047Z,4.33
2018-09-19T02:25:15.300Z,4.30
2018-09-19T02:27:43.537Z,6.55
2018-09-19T02:30:11.730Z,3.87
2018-09-19T02:32:40.030Z,5.37
2018-09-19T02:35:08.284Z,4.37
2018-09-19T02:37:36.496Z,4.62
2018-09-19T02:40:04.757Z,5.67
2018-09-19T02:42:32.968Z,4.53
2018-09-19T02:45:01.310Z,4.90
2018-09-19T02:47:29.518Z,4.58
2018-09-19T02:49:58.021Z,4.22
2018-09-19T02:52:26.222Z,4.20
2018-09-19T02:54:54.426Z,3.52
2018-09-19T02:57:22.632Z,4.10
2018-09-19T02:59:50.824Z,4.12
2018-09-19T03:02:19.019Z,3.75
2018-09-19T03:04:47.224Z,3.50
2018-09-19T03:07:15.494Z,3.30
2018-09-19T03:09:43.692Z,4.53
2018-09-19T03:12:11.948Z,3.92
2018-09-19T03:14:40.138Z,3.92
2018-09-19T03:17:08.377Z,3.62
2018-09-19T03:19:36.563Z,2.65
2018-09-19T03:22:04.764Z,3.67
2018-09-19T03:24:33.082Z,3.45
2018-09-19T03:27:01.367Z,3.27
2018-09-19T03:29:29.687Z,3.62
2018-09-19T03:31:57.886Z,2.60
2018-09-19T03:34:26.106Z,3.00
2018-09-19T03:36:54.394Z,3.55
2018-09-19T03:39:22.932Z,3.50
2018-09-19T03:41:51.477Z,4.25
2018-09-19T03:44:20.008Z,3.30
2018-09-19T03:46:48.550Z,3.20
2018-09-19T03:49:17.216Z,3.90
2018-09-19T03:51:45.738Z,3.10
2018-09-19T03:54:14.267Z,2.87
2018-09-19T03:56:42.793Z,3.62
2018-09-19T03:59:11.319Z,3.00
2018-09-19T04:01:39.862Z,3.92
2018-09-19T04:04:08.447Z,3.55
2018-09-19T04:06:37.386Z,3.20
2018-09-19T04:09:09.276Z,4.60
2018-09-19T04:11:37.859Z,3.40
2018-09-19T04:14:06.848Z,3.83
2018-09-19T04:16:35.362Z,3.80
2018-09-19T04:19:03.942Z,4.10
2018-09-19T04:21:32.528Z,4.30
2018-09-19T04:24:01.270Z,4.10
2018-09-19T04:26:29.803Z,3.62
2018-09-19T04:28:58.333Z,4.20
2018-09-19T04:31:26.930Z,5.00
2018-09-19T04:33:55.472Z,4.10
2018-09-19T04:36:24.016Z,4.15
2018-09-19T04:38:52.576Z,4.28
2018-09-19T04:41:21.328Z,4.03
2018-09-19T04:43:49.867Z,4.62
2018-09-19T04:46:18.393Z,4.00
2018-09-19T04:48:46.928Z,3.92
2018-09-19T04:51:15.470Z,4.00
2018-09-19T04:53:44.125Z,5.12
2018-09-19T04:56:12.663Z,4.25
2018-09-19T04:58:41.235Z,4.00
2018-09-19T05:01:09.775Z,3.58
2018-09-19T05:03:38.331Z,4.65
2018-09-19T05:06:06.888Z,3.75
2018-09-19T05:08:35.425Z,4.85
2018-09-19T05:11:04.310Z,3.95
2018-09-19T05:13:33.010Z,4.15
2018-09-19T05:16:01.545Z,3.92
2018-09-19T05:18:30.109Z,3.90
2018-09-19T05:20:58.655Z,4.15
2018-09-19T05:23:27.208Z,3.95
2018-09-19T05:25:55.746Z,3.95
2018-09-19T05:28:24.340Z,3.98
2018-09-19T05:30:52.885Z,4.62
2018-09-19T05:33:21.412Z,4.20
2018-09-19T05:35:49.971Z,4.20
2018-09-19T05:38:18.518Z,4.12
2018-09-19T05:40:47.412Z,3.92
2018-09-19T05:43:15.995Z,3.40
2018-09-19T05:45:44.751Z,5.60
2018-09-19T05:48:13.302Z,4.50
2018-09-19T05:50:41.912Z,4.55
2018-09-19T05:53:10.507Z,4.08
2018-09-19T05:55:39.056Z,4.50
2018-09-19T05:58:07.633Z,5.03
2018-09-19T06:00:36.180Z,3.60
2018-09-19T06:03:04.947Z,4.05
2018-09-19T06:05:33.762Z,4.03
2018-09-19T06:08:02.716Z,3.90
2018-09-19T06:10:31.296Z,3.95
2018-09-19T06:12:59.901Z,3.55
2018-09-19T06:15:28.419Z,3.80
2018-09-19T06:17:56.996Z,3.37
2018-09-19T06:20:25.597Z,3.33
2018-09-19T06:22:54.130Z,3.25
2018-09-19T06:25:22.752Z,3.60
2018-09-19T06:27:51.305Z,3.90
2018-09-19T06:30:19.838Z,3.10
2018-09-19T06:32:48.405Z,4.08
2018-09-19T06:35:16.972Z,3.80
2018-09-19T06:37:45.544Z,3.85
2018-09-19T06:40:14.216Z,3.58
2018-09-19T06:42:42.689Z,3.80
2018-09-19T06:45:11.511Z,3.05
2018-09-19T06:47:40.115Z,3.70
2018-09-19T06:50:08.660Z,2.90
2018-09-19T06:52:37.198Z,3.25
2018-09-19T06:55:05.775Z,3.87
2018-09-19T06:57:34.510Z,3.83
2018-09-19T07:00:03.120Z,2.55
2018-09-19T07:02:31.896Z,3.15
2018-09-19T07:05:00.559Z,3.42
2018-09-19T07:07:29.111Z,2.90
2018-09-19T07:09:57.658Z,2.77
2018-09-19T07:12:26.195Z,2.85
2018-09-19T07:14:54.733Z,2.80
2018-09-19T07:17:23.284Z,2.75
2018-09-19T07:19:52.214Z,2.90
2018-09-19T07:22:20.768Z,2.75
2018-09-19T07:24:49.316Z,2.17
2018-09-19T07:27:17.861Z,2.65
2018-09-19T07:29:46.399Z,2.37
2018-09-19T07:32:14.935Z,2.37
2018-09-19T07:34:43.490Z,2.60
2018-09-19T07:37:12.118Z,2.55
2018-09-19T07:39:40.692Z,2.95
2018-09-19T07:42:09.242Z,2.22
2018-09-19T07:44:37.786Z,2.60
2018-09-19T07:47:06.455Z,3.45
2018-09-19T07:49:35.151Z,2.80
2018-09-19T07:52:03.708Z,3.02
2018-09-19T07:54:32.307Z,3.27
2018-09-19T07:57:01.093Z,2.35
2018-09-19T07:59:29.722Z,2.52
2018-09-19T08:01:58.269Z,2.42
2018-09-19T08:04:26.858Z,2.83
2018-09-19T08:06:55.459Z,2.92
2018-09-19T08:09:24.007Z,2.12
2018-09-19T08:11:52.569Z,2.75
2018-09-19T08:14:21.171Z,2.50
2018-09-19T08:16:49.846Z,2.25
2018-09-19T08:19:18.358Z,2.58
2018-09-19T08:21:46.921Z,2.08
2018-09-19T08:24:15.463Z,3.67
2018-09-19T08:26:44.039Z,2.30
2018-09-19T08:29:12.831Z,2.83
2018-09-19T08:31:41.389Z,2.02
2018-09-19T08:34:09.944Z,2.40
2018-09-19T08:36:38.482Z,2.08
2018-09-19T08:39:08.387Z,2.20
2018-09-19T08:41:36.923Z,1.95
2018-09-19T08:44:05.841Z,2.40
2018-09-19T08:46:34.713Z,2.10
2018-09-19T08:49:03.343Z,2.02
2018-09-19T08:51:31.897Z,2.12
2018-09-19T08:54:00.431Z,1.80
2018-09-19T08:56:28.971Z,1.80
2018-09-19T08:58:57.759Z,1.70
2018-09-19T09:01:26.298Z,1.62
2018-09-19T09:03:55.254Z,1.80
2018-09-19T09:06:23.813Z,1.55
2018-09-19T09:08:52.459Z,1.47
2018-09-19T09:11:21.006Z,1.62
2018-09-19T09:13:49.605Z,1.57
2018-09-19T09:16:18.279Z,2.90
2018-09-19T09:18:46.940Z,1.80
2018-09-19T09:21:15.520Z,2.12
2018-09-19T09:23:44.185Z,1.62
2018-09-19T09:26:12.805Z,3.37
2018-09-19T09:28:41.320Z,1.50
2018-09-19T09:31:09.996Z,2.05
2018-09-19T09:33:38.536Z,2.15
2018-09-19T09:36:06.985Z,1.92
2018-09-19T09:38:36.007Z,1.98
2018-09-19T09:41:05.783Z,1.20
2018-09-19T09:43:34.373Z,1.30
2018-09-19T09:46:02.947Z,1.60
2018-09-19T09:48:31.496Z,1.65
2018-09-19T09:51:00.071Z,2.12
2018-09-19T09:53:28.684Z,1.50
2018-09-19T09:55:57.453Z,1.10
2018-09-19T09:58:26.022Z,2.15
2018-09-19T10:00:54.624Z,1.85
2018-09-19T10:03:23.194Z,2.27
2018-09-19T10:05:51.966Z,1.10
2018-09-19T10:08:20.894Z,1.40
2018-09-19T10:10:49.442Z,1.67
2018-09-19T10:13:17.997Z,1.00
2018-09-19T10:15:46.552Z,1.12
2018-09-19T10:18:15.113Z,1.67
2018-09-19T10:20:43.881Z,1.45
2018-09-19T10:23:12.434Z,1.60
2018-09-19T10:25:41.284Z,1.40
2018-09-19T10:28:09.835Z,1.15
2018-09-19T10:30:38.450Z,1.50
2018-09-19T10:33:07.147Z,1.50
2018-09-19T10:35:35.718Z,1.50
2018-09-19T10:38:04.291Z,1.85
2018-09-19T10:40:32.847Z,1.12
2018-09-19T10:43:01.530Z,1.25
2018-09-19T10:45:30.093Z,1.30
2018-09-19T10:47:58.630Z,1.30
2018-09-19T10:50:27.389Z,1.10
2018-09-19T10:52:55.939Z,1.03
2018-09-19T10:55:24.487Z,2.02
2018-09-19T10:57:53.051Z,1.43
2018-09-19T11:00:21.753Z,1.27
2018-09-19T11:02:50.292Z,1.33
2018-09-19T11:05:18.835Z,1.50
2018-09-19T11:07:47.395Z,1.20
2018-09-19T11:10:16.462Z,0.80
2018-09-19T11:12:45.007Z,1.10
2018-09-19T11:15:13.579Z,1.00
2018-09-19T11:17:42.455Z,1.00
2018-09-19T11:20:11.019Z,1.57
2018-09-19T11:22:39.561Z,1.70
2018-09-19T11:25:08.256Z,1.67
2018-09-19T11:27:36.851Z,1.77
2018-09-19T11:30:05.885Z,1.30
2018-09-19T11:32:34.415Z,1.50
2018-09-19T11:35:03.195Z,1.73
2018-09-19T11:37:31.766Z,2.07
2018-09-19T11:40:00.396Z,1.50
2018-09-19T11:42:28.976Z,1.07
2018-09-19T11:44:57.563Z,1.70
2018-09-19T11:47:26.290Z,1.43
2018-09-19T11:49:54.843Z,1.80
2018-09-19T11:52:23.382Z,2.50
2018-09-19T11:54:51.918Z,1.90
2018-09-19T11:57:20.813Z,1.43
2018-09-19T11:59:49.363Z,1.43
2018-09-19T12:02:17.950Z,1.77
2018-09-19T12:04:46.468Z,1.70
2018-09-19T12:07:15.037Z,1.80
2018-09-19T12:09:43.835Z,1.70
2018-09-19T12:12:12.387Z,1.90
2018-09-19T12:14:40.943Z,2.93
2018-09-19T12:17:09.479Z,2.37
2018-09-19T12:19:38.039Z,2.07
2018-09-19T12:22:06.649Z,1.40
2018-09-19T12:24:35.206Z,1.87
2018-09-19T12:27:04.023Z,2.40
2018-09-19T12:29:32.757Z,2.00
2018-09-19T12:32:01.304Z,1.73
2018-09-19T12:34:29.847Z,1.73
2018-09-19T12:36:58.534Z,2.17
2018-09-19T12:39:27.458Z,2.10
2018-09-19T12:41:56.011Z,2.37
2018-09-19T12:44:24.598Z,2.50
2018-09-19T12:46:53.366Z,2.23
2018-09-19T12:49:21.937Z,2.27
2018-09-19T12:51:50.526Z,1.80
2018-09-19T12:54:19.078Z,2.20
2018-09-19T12:56:47.831Z,2.03
2018-09-19T12:59:16.447Z,2.23
2018-09-19T13:01:45.011Z,1.80
2018-09-19T13:04:13.600Z,2.10
2018-09-19T13:06:42.222Z,2.07
2018-09-19T13:09:11.875Z,1.90
2018-09-19T13:11:41.187Z,2.00
2018-09-19T13:14:09.916Z,2.47
2018-09-19T13:16:38.458Z,2.50
2018-09-19T13:19:07.039Z,2.50
2018-09-19T13:21:35.585Z,2.50
2018-09-19T13:24:04.271Z,2.07
2018-09-19T13:26:32.835Z,2.63
2018-09-19T13:29:01.382Z,1.97
2018-09-19T13:31:29.918Z,1.70
2018-09-19T13:33:58.637Z,2.00
2018-09-19T13:36:27.182Z,3.00
2018-09-19T13:38:56.169Z,1.97
2018-09-19T13:41:24.718Z,2.20
2018-09-19T13:43:53.277Z,1.93
2018-09-19T13:46:22.203Z,2.10
2018-09-19T13:48:55.879Z,3.12
2018-09-19T13:51:25.316Z,3.00
2018-09-19T13:53:53.977Z,2.40
2018-09-19T13:56:22.851Z,2.10
2018-09-19T13:58:51.420Z,1.93
2018-09-19T14:01:19.960Z,1.90
2018-09-19T14:03:48.519Z,2.30
2018-09-19T14:06:17.127Z,2.00
2018-09-19T14:08:46.089Z,2.13
2018-09-19T14:11:14.632Z,2.07
2018-09-19T14:13:43.191Z,1.93
2018-09-19T14:16:11.785Z,2.10
2018-09-19T14:18:40.374Z,2.53
2018-09-19T14:21:09.076Z,1.87
2018-09-19T14:23:37.610Z,2.27
2018-09-19T14:26:06.154Z,2.10
2018-09-19T14:28:34.977Z,2.10
2018-09-19T14:31:03.506Z,1.80
2018-09-19T14:33:32.231Z,2.10
2018-09-19T14:36:00.825Z,2.33
2018-09-19T14:38:29.411Z,2.10
2018-09-19T14:40:57.955Z,2.23
2018-09-19T14:43:26.687Z,2.20
2018-09-19T14:45:55.227Z,2.60
2018-09-19T14:48:23.837Z,1.90
2018-09-19T14:50:52.506Z,2.07
2018-09-19T14:53:21.037Z,2.07
2018-09-19T14:55:49.579Z,2.53
2018-09-19T14:58:18.119Z,2.17
2018-09-19T15:00:46.754Z,2.70
2018-09-19T15:03:15.358Z,1.83
2018-09-19T15:05:43.906Z,2.43
2018-09-19T15:08:12.465Z,2.53
2018-09-19T15:10:41.019Z,2.50
2018-09-19T15:13:09.563Z,2.42
2018-09-19T15:15:38.243Z,2.67
2018-09-19T15:18:06.911Z,2.17
2018-09-19T15:20:35.448Z,2.83
2018-09-19T15:23:04.187Z,3.05
2018-09-19T15:25:32.789Z,2.80
2018-09-19T15:28:01.346Z,2.45
2018-09-19T15:30:29.890Z,2.62
2018-09-19T15:32:58.787Z,4.40
2018-09-19T15:35:27.351Z,3.08
2018-09-19T15:37:56.251Z,3.37
2018-09-19T15:40:24.783Z,2.70
2018-09-19T15:42:53.326Z,2.50
2018-09-19T15:45:22.107Z,2.55
2018-09-19T15:47:50.704Z,2.52
2018-09-19T15:50:19.222Z,3.08
2018-09-19T15:52:47.759Z,3.25
2018-09-19T15:55:16.303Z,2.58
2018-09-19T15:57:44.966Z,3.08
2018-09-19T16:00:13.575Z,2.70
2018-09-19T16:02:42.117Z,3.22
2018-09-19T16:05:10.700Z,2.58
2018-09-19T16:07:39.595Z,2.92
2018-09-19T16:10:08.242Z,3.08
2018-09-19T16:12:36.777Z,3.37
2018-09-19T16:15:05.403Z,3.00
2018-09-19T16:17:33.944Z,3.40
2018-09-19T16:20:02.526Z,4.25
2018-09-19T16:22:31.079Z,4.90
2018-09-19T16:24:59.731Z,2.98
2018-09-19T16:27:28.280Z,2.92
2018-09-19T16:29:56.834Z,2.60
2018-09-19T16:32:25.403Z,2.67
2018-09-19T16:34:53.956Z,2.62
2018-09-19T16:37:22.693Z,2.17
2018-09-19T16:39:51.379Z,2.83
2018-09-19T16:42:19.910Z,4.25
2018-09-19T16:44:48.472Z,2.72
2018-09-19T16:47:17.031Z,3.37
2018-09-19T16:49:45.603Z,2.75
2018-09-19T16:52:14.266Z,2.55
2018-09-19T16:54:42.861Z,2.70
2018-09-19T16:57:11.385Z,2.35
2018-09-19T16:59:40.272Z,2.90
2018-09-19T17:02:09.003Z,2.33
2018-09-19T17:04:37.711Z,3.75
2018-09-19T17:07:06.325Z,3.02
2018-09-19T17:09:34.875Z,5.65
2018-09-19T17:12:03.428Z,3.52
2018-09-19T17:14:31.974Z,2.75
2018-09-19T17:17:00.900Z,3.50
2018-09-19T17:19:29.432Z,2.52
2018-09-19T17:21:58.003Z,2.15
2018-09-19T17:24:26.541Z,3.02
2018-09-19T17:26:55.307Z,3.47
2018-09-19T17:29:23.863Z,3.00
2018-09-19T17:31:52.492Z,2.95
2018-09-19T17:34:21.486Z,3.37
2018-09-19T17:36:50.035Z,4.45
2018-09-19T17:39:18.568Z,3.37
2018-09-19T17:41:47.239Z,2.77
2018-09-19T17:44:15.805Z,3.83
2018-09-19T17:46:44.363Z,3.15
2018-09-19T17:49:13.000Z,2.70
2018-09-19T17:51:41.590Z,4.03
2018-09-19T17:54:10.569Z,2.70
2018-09-19T17:56:39.141Z,3.12
2018-09-19T17:59:07.707Z,3.10
2018-09-19T18:01:36.311Z,3.37
2018-09-19T18:04:04.883Z,3.33
2018-09-19T18:06:33.595Z,3.50
2018-09-19T18:09:02.159Z,2.60
2018-09-19T18:11:30.737Z,2.67
2018-09-19T18:13:59.315Z,2.83
2018-09-19T18:16:27.960Z,2.62
2018-09-19T18:18:56.513Z,3.95
2018-09-19T18:21:25.066Z,2.90
2018-09-19T18:23:54.215Z,3.25
2018-09-19T18:26:22.773Z,3.45
2018-09-19T18:28:51.430Z,3.00
2018-09-19T18:31:19.979Z,3.22
2018-09-19T18:33:48.521Z,2.87
2018-09-19T18:36:17.108Z,3.90
2018-09-19T18:38:45.923Z,3.15
2018-09-19T18:41:14.495Z,2.90
2018-09-19T18:43:43.091Z,2.42
2018-09-19T18:46:11.642Z,3.58
2018-09-19T18:48:40.178Z,3.15
2018-09-19T18:51:08.752Z,3.15
2018-09-19T18:53:37.374Z,2.75
2018-09-19T18:56:06.073Z,2.95
2018-09-19T18:58:34.623Z,2.98
2018-09-19T19:01:03.175Z,3.35
2018-09-19T19:03:31.704Z,3.00
2018-09-19T19:06:00.419Z,3.42
2018-09-19T19:08:28.973Z,3.37
2018-09-19T19:10:57.515Z,3.45
2018-09-19T19:13:26.157Z,3.37
2018-09-19T19:15:54.709Z,3.25
2018-09-19T19:18:23.410Z,3.30
2018-09-19T19:20:51.940Z,3.50
2018-09-19T19:23:20.558Z,3.42
2018-09-19T19:25:49.107Z,2.52
2018-09-19T19:28:17.647Z,3.00
2018-09-19T19:30:46.348Z,3.50
2018-09-19T19:33:14.839Z,3.42
2018-09-19T19:35:43.401Z,3.37
2018-09-19T19:38:12.045Z,3.52
2018-09-19T19:40:40.531Z,3.47
2018-09-19T19:43:09.071Z,3.75
2018-09-19T19:45:37.634Z,3.58
2018-09-19T19:48:06.849Z,3.40
2018-09-19T19:50:35.403Z,3.42
2018-09-19T19:53:03.950Z,3.27
2018-09-19T19:55:32.494Z,4.05
2018-09-19T19:58:01.055Z,3.42
2018-09-19T20:00:29.615Z,3.10
2018-09-19T20:02:58.153Z,3.12
2018-09-19T20:05:26.699Z,3.00
2018-09-19T20:07:55.248Z,3.20
2018-09-19T20:10:23.799Z,3.37
2018-09-19T20:12:52.453Z,2.90
2018-09-19T20:15:20.988Z,3.25
2018-09-19T20:17:49.524Z,2.65
2018-09-19T20:20:18.076Z,2.72
2018-09-19T20:22:46.639Z,2.70
2018-09-19T20:25:15.359Z,3.35
2018-09-19T20:27:43.907Z,3.08
2018-09-19T20:30:12.515Z,2.70
2018-09-19T20:32:41.060Z,3.22
2018-09-19T20:35:09.635Z,2.60
2018-09-19T20:37:38.377Z,4.85
2018-09-19T20:40:06.950Z,4.80
2018-09-19T20:42:35.484Z,2.62
2018-09-19T20:45:04.567Z,3.17
2018-09-19T20:47:33.152Z,3.62
2018-09-19T20:50:01.927Z,3.87
2018-09-19T20:52:30.466Z,3.77
2018-09-19T20:54:59.122Z,3.12
2018-09-19T20:57:27.650Z,2.50
2018-09-19T20:59:56.211Z,3.12
2018-09-19T21:02:24.867Z,3.10
2018-09-19T21:04:53.489Z,2.90
2018-09-19T21:07:22.111Z,3.70
2018-09-19T21:09:50.647Z,3.12
2018-09-19T21:12:19.184Z,3.65
2018-09-19T21:14:47.716Z,3.00
2018-09-19T21:17:16.255Z,2.85
2018-09-19T21:19:44.815Z,3.15
2018-09-19T21:22:13.462Z,3.92
2018-09-19T21:24:42.131Z,3.00
2018-09-19T21:27:10.719Z,3.05
2018-09-19T21:29:39.421Z,3.22
2018-09-19T21:32:08.036Z,2.85
2018-09-19T21:34:36.684Z,2.90
2018-09-19T21:37:05.256Z,2.50
2018-09-19T21:39:33.790Z,4.40
2018-09-19T21:42:02.535Z,3.08
2018-09-19T21:44:31.073Z,3.80
2018-09-19T21:46:59.606Z,2.60
2018-09-19T21:49:28.155Z,4.53
2018-09-19T21:51:56.676Z,3.98
2018-09-19T21:54:25.215Z,3.33
2018-09-19T21:56:53.742Z,3.55
2018-09-19T21:59:22.426Z,3.70
2018-09-19T22:01:56.344Z,3.83
2018-09-19T22:04:25.395Z,3.45
2018-09-19T22:06:53.951Z,2.70
2018-09-19T22:09:22.484Z,3.70
2018-09-19T22:11:51.008Z,3.00
2018-09-19T22:14:19.547Z,3.02
2018-09-19T22:16:48.253Z,3.10
2018-09-19T22:19:16.779Z,3.80
2018-09-19T22:21:45.310Z,2.85
2018-09-19T22:24:13.877Z,3.45
2018-09-19T22:26:42.439Z,3.20
2018-09-19T22:29:11.001Z,3.27
2018-09-19T22:31:39.550Z,4.50
2018-09-19T22:34:08.101Z,3.08
2018-09-19T22:36:36.687Z,2.95
2018-09-19T22:39:07.389Z,3.00
2018-09-19T22:41:35.981Z,3.20
2018-09-19T22:44:04.782Z,4.03
2018-09-19T22:46:33.323Z,3.22
2018-09-19T22:49:02.167Z,3.35
2018-09-19T22:51:30.843Z,3.25
2018-09-19T22:53:59.439Z,3.17
2018-09-19T22:56:27.970Z,3.90
2018-09-19T22:58:56.503Z,3.17
2018-09-19T23:01:25.339Z,3.72
2018-09-19T23:03:53.918Z,3.98
2018-09-19T23:06:22.463Z,3.22
2018-09-19T23:08:51.005Z,2.75
2018-09-19T23:11:19.535Z,3.50
2018-09-19T23:13:48.083Z,3.72
2018-09-19T23:16:16.651Z,3.27
2018-09-19T23:18:45.580Z,3.33
2018-09-19T23:21:14.203Z,3.80
2018-09-19T23:23:42.771Z,3.70
2018-09-19T23:26:11.367Z,3.35
2018-09-19T23:28:39.893Z,4.00
2018-09-19T23:31:08.476Z,3.30
2018-09-19T23:33:37.215Z,3.95
2018-09-19T23:36:05.858Z,3.00
2018-09-19T23:38:34.761Z,3.10
2018-09-19T23:41:03.339Z,3.72
2018-09-19T23:43:31.873Z,3.90
2018-09-19T23:46:00.395Z,3.22
2018-09-19T23:48:28.931Z,3.70
2018-09-19T23:50:57.491Z,3.30
2018-09-19T23:53:26.019Z,3.08
2018-09-19T23:55:54.667Z,3.45
2018-09-19T23:58:23.207Z,4.00
